Etusivu
METAR-TAF:

METAR-TAF

Lentoasemat :

Tšita, Venäjä

Leveyspiiri: 52-05N, Pituuspiiri: 113-29E, korkeus merenpinnasta: 685 m

Tämänhetkinen sää

Tämä raportti tehtiin 17 minuuttia sitten, kello 15.30 UTC
Tuuli 4 kn lännestä/luoteesta
Lämpötila 14°C
Kosteus 94%
Ilmanpaine 1008 hPa
Näkyvyys 10 km tai enemmän

METAR: UIAA 231530Z AUTO 30002MPS 9999 NCD 14/13 Q1008 RMK QFE698/0930

Aika: 00:47 (15:47 UTC)

Sääennuste

Tämä raportti tehtiin 1 tunti ja 47 minuuttia sitten, kello 14.00 UTC
Ennuste voimassa 23. päivästä klo 15 UTC - 24. päivään klo 15 UTC
Tuuli 6 kn lännestä/luoteesta
Näkyvyys 10 km tai enemmän

TAF: UIAA 231400Z 2315/2415 30003MPS 9999 NSC

Säähavainnot ja -ennusteet yli 4000 lentoasemalta (METAR- ja TAF-raportit).

Käytössä olevat sääasemat on merkitty karttaan keltaisilla ja punaisilla pisteillä.

Aseta hiiri pisteen päälle nähdäksesi sääaseman nimen.

Klikkaa sitten nähdäksesi säähavainnot ja -ennusteet.

Kartan vaihtaminen: klikkaa mustalla rastilla varustettuja vihreitä pisteitä, niin voit zoomata sisään; viivalla varustettua vihreää pistettä, niin voit zoomata ulos tai vihreitä nuolia, niin pääset viereisille kartoille.


METAR-TAF: